sensor_id;sensor_type;location;lat;lon;timestamp;P1;durP1;ratioP1;P2;durP2;ratioP2
7013;SDS011;3547;50.774;12.918;2023-08-12T00:01:02;2.88;;;2.40;;
7013;SDS011;3547;50.774;12.918;2023-08-12T00:03:28;2.20;;;2.00;;
7013;SDS011;3547;50.774;12.918;2023-08-12T00:05:54;2.20;;;2.00;;
7013;SDS011;3547;50.774;12.918;2023-08-12T00:08:22;5.43;;;2.17;;
7013;SDS011;3547;50.774;12.918;2023-08-12T00:10:48;2.97;;;2.10;;
7013;SDS011;3547;50.774;12.918;2023-08-12T00:13:14;3.03;;;2.45;;
7013;SDS011;3547;50.774;12.918;2023-08-12T00:15:43;1.83;;;1.73;;
7013;SDS011;3547;50.774;12.918;2023-08-12T00:18:10;3.70;;;1.90;;
7013;SDS011;3547;50.774;12.918;2023-08-12T00:20:36;2.03;;;1.80;;
7013;SDS011;3547;50.774;12.918;2023-08-12T00:23:04;2.22;;;1.80;;
7013;SDS011;3547;50.774;12.918;2023-08-12T00:25:30;2.17;;;1.80;;
7013;SDS011;3547;50.774;12.918;2023-08-12T00:27:56;2.10;;;1.90;;
7013;SDS011;3547;50.774;12.918;2023-08-12T00:30:22;2.20;;;2.00;;
7013;SDS011;3547;50.774;12.918;2023-08-12T00:32:48;2.10;;;1.90;;
7013;SDS011;3547;50.774;12.918;2023-08-12T00:35:14;2.75;;;2.10;;
7013;SDS011;3547;50.774;12.918;2023-08-12T00:37:41;2.40;;;2.20;;
7013;SDS011;3547;50.774;12.918;2023-08-12T00:40:07;2.53;;;1.95;;
7013;SDS011;3547;50.774;12.918;2023-08-12T00:42:33;3.03;;;2.47;;
7013;SDS011;3547;50.774;12.918;2023-08-12T00:45:00;2.13;;;1.83;;
7013;SDS011;3547;50.774;12.918;2023-08-12T00:47:26;2.10;;;1.90;;
7013;SDS011;3547;50.774;12.918;2023-08-12T00:49:54;2.65;;;1.85;;
7013;SDS011;3547;50.774;12.918;2023-08-12T00:52:24;2.10;;;1.90;;
7013;SDS011;3547;50.774;12.918;2023-08-12T00:54:50;2.05;;;1.85;;
7013;SDS011;3547;50.774;12.918;2023-08-12T00:57:16;2.03;;;1.83;;
7013;SDS011;3547;50.774;12.918;2023-08-12T00:59:43;2.08;;;1.77;;
7013;SDS011;3547;50.774;12.918;2023-08-12T01:02:11;2.85;;;2.22;;
7013;SDS011;3547;50.774;12.918;2023-08-12T01:04:42;2.63;;;1.88;;
7013;SDS011;3547;50.774;12.918;2023-08-12T01:07:08;2.15;;;1.95;;
7013;SDS011;3547;50.774;12.918;2023-08-12T01:09:34;1.92;;;1.83;;
7013;SDS011;3547;50.774;12.918;2023-08-12T01:14:45;2.55;;;2.17;;
7013;SDS011;3547;50.774;12.918;2023-08-12T01:17:32;4.63;;;2.35;;
7013;SDS011;3547;50.774;12.918;2023-08-12T01:20:05;2.60;;;2.30;;
7013;SDS011;3547;50.774;12.918;2023-08-12T01:22:40;2.00;;;1.90;;
7013;SDS011;3547;50.774;12.918;2023-08-12T01:25:11;2.50;;;2.10;;
7013;SDS011;3547;50.774;12.918;2023-08-12T01:27:40;1.90;;;1.75;;
7013;SDS011;3547;50.774;12.918;2023-08-12T01:30:06;2.40;;;2.03;;
7013;SDS011;3547;50.774;12.918;2023-08-12T01:32:41;2.45;;;2.22;;
7013;SDS011;3547;50.774;12.918;2023-08-12T01:35:34;2.30;;;1.83;;
7013;SDS011;3547;50.774;12.918;2023-08-12T01:38:08;2.35;;;1.83;;
7013;SDS011;3547;50.774;12.918;2023-08-12T01:40:38;2.38;;;2.17;;
7013;SDS011;3547;50.774;12.918;2023-08-12T01:43:06;2.15;;;1.95;;
7013;SDS011;3547;50.774;12.918;2023-08-12T01:45:34;2.55;;;2.00;;
7013;SDS011;3547;50.774;12.918;2023-08-12T01:48:01;1.98;;;1.77;;
7013;SDS011;3547;50.774;12.918;2023-08-12T01:50:28;2.33;;;2.10;;
7013;SDS011;3547;50.774;12.918;2023-08-12T01:52:54;2.60;;;1.85;;
7013;SDS011;3547;50.774;12.918;2023-08-12T01:55:21;2.03;;;1.83;;
7013;SDS011;3547;50.774;12.918;2023-08-12T01:57:48;2.15;;;2.05;;
7013;SDS011;3547;50.774;12.918;2023-08-12T02:00:15;3.30;;;1.90;;
7013;SDS011;3547;50.774;12.918;2023-08-12T02:02:41;2.30;;;2.10;;
7013;SDS011;3547;50.774;12.918;2023-08-12T02:05:11;2.90;;;2.10;;
7013;SDS011;3547;50.774;12.918;2023-08-12T02:07:38;2.22;;;1.95;;
7013;SDS011;3547;50.774;12.918;2023-08-12T02:10:07;7.80;;;1.88;;
7013;SDS011;3547;50.774;12.918;2023-08-12T02:12:34;2.40;;;2.08;;
7013;SDS011;3547;50.774;12.918;2023-08-12T02:15:00;3.67;;;2.50;;
7013;SDS011;3547;50.774;12.918;2023-08-12T02:17:29;2.53;;;2.28;;
7013;SDS011;3547;50.774;12.918;2023-08-12T02:19:56;2.83;;;2.13;;
7013;SDS011;3547;50.774;12.918;2023-08-12T02:22:44;4.13;;;2.38;;
7013;SDS011;3547;50.774;12.918;2023-08-12T02:25:10;2.70;;;2.35;;
7013;SDS011;3547;50.774;12.918;2023-08-12T02:27:43;2.63;;;2.30;;
7013;SDS011;3547;50.774;12.918;2023-08-12T02:30:10;2.40;;;2.20;;
7013;SDS011;3547;50.774;12.918;2023-08-12T02:39:31;2.20;;;2.00;;
7013;SDS011;3547;50.774;12.918;2023-08-12T02:41:58;2.80;;;2.33;;
7013;SDS011;3547;50.774;12.918;2023-08-12T02:44:33;5.80;;;2.25;;
7013;SDS011;3547;50.774;12.918;2023-08-12T02:47:09;2.22;;;2.03;;
7013;SDS011;3547;50.774;12.918;2023-08-12T02:49:36;2.72;;;2.30;;
7013;SDS011;3547;50.774;12.918;2023-08-12T02:52:05;2.05;;;1.95;;
7013;SDS011;3547;50.774;12.918;2023-08-12T02:54:46;3.15;;;2.17;;
7013;SDS011;3547;50.774;12.918;2023-08-12T02:57:15;2.80;;;2.15;;
7013;SDS011;3547;50.774;12.918;2023-08-12T03:00:23;1.90;;;1.80;;
7013;SDS011;3547;50.774;12.918;2023-08-12T03:02:55;2.28;;;2.08;;
7013;SDS011;3547;50.774;12.918;2023-08-12T03:05:48;2.22;;;2.03;;
7013;SDS011;3547;50.774;12.918;2023-08-12T03:11:42;3.03;;;1.95;;
7013;SDS011;3547;50.774;12.918;2023-08-12T03:14:08;2.28;;;2.08;;
7013;SDS011;3547;50.774;12.918;2023-08-12T03:16:38;5.93;;;2.30;;
7013;SDS011;3547;50.774;12.918;2023-08-12T03:19:04;2.75;;;2.22;;
7013;SDS011;3547;50.774;12.918;2023-08-12T03:21:31;2.70;;;2.50;;
7013;SDS011;3547;50.774;12.918;2023-08-12T03:23:57;2.33;;;2.10;;
7013;SDS011;3547;50.774;12.918;2023-08-12T03:26:32;4.15;;;1.98;;
7013;SDS011;3547;50.774;12.918;2023-08-12T03:29:08;2.30;;;2.10;;
7013;SDS011;3547;50.774;12.918;2023-08-12T03:31:38;3.22;;;2.22;;
7013;SDS011;3547;50.774;12.918;2023-08-12T03:37:41;3.20;;;2.20;;
7013;SDS011;3547;50.774;12.918;2023-08-12T03:40:10;2.38;;;2.17;;
7013;SDS011;3547;50.774;12.918;2023-08-12T03:42:38;2.72;;;2.42;;
7013;SDS011;3547;50.774;12.918;2023-08-12T03:45:07;2.45;;;2.25;;
7013;SDS011;3547;50.774;12.918;2023-08-12T03:47:34;2.38;;;2.10;;
7013;SDS011;3547;50.774;12.918;2023-08-12T03:50:00;5.05;;;2.28;;
7013;SDS011;3547;50.774;12.918;2023-08-12T03:52:26;2.25;;;1.95;;
7013;SDS011;3547;50.774;12.918;2023-08-12T03:54:56;2.28;;;2.03;;
7013;SDS011;3547;50.774;12.918;2023-08-12T03:57:33;2.22;;;1.98;;
7013;SDS011;3547;50.774;12.918;2023-08-12T04:00:00;2.83;;;2.55;;
7013;SDS011;3547;50.774;12.918;2023-08-12T04:02:36;1.95;;;1.85;;
7013;SDS011;3547;50.774;12.918;2023-08-12T04:05:03;3.33;;;2.10;;
7013;SDS011;3547;50.774;12.918;2023-08-12T04:07:33;2.70;;;1.92;;
7013;SDS011;3547;50.774;12.918;2023-08-12T04:10:08;3.38;;;2.15;;
7013;SDS011;3547;50.774;12.918;2023-08-12T04:12:53;2.92;;;2.10;;
7013;SDS011;3547;50.774;12.918;2023-08-12T04:16:03;2.53;;;2.05;;
7013;SDS011;3547;50.774;12.918;2023-08-12T04:18:33;4.03;;;2.47;;
7013;SDS011;3547;50.774;12.918;2023-08-12T04:21:02;2.50;;;2.30;;
7013;SDS011;3547;50.774;12.918;2023-08-12T04:26:18;2.55;;;2.17;;
7013;SDS011;3547;50.774;12.918;2023-08-12T04:28:49;2.60;;;2.38;;
7013;SDS011;3547;50.774;12.918;2023-08-12T04:31:18;2.00;;;1.85;;
7013;SDS011;3547;50.774;12.918;2023-08-12T04:33:45;2.75;;;2.40;;
7013;SDS011;3547;50.774;12.918;2023-08-12T04:36:15;2.88;;;2.40;;
7013;SDS011;3547;50.774;12.918;2023-08-12T04:38:44;2.42;;;2.10;;
7013;SDS011;3547;50.774;12.918;2023-08-12T04:41:15;4.65;;;1.90;;
7013;SDS011;3547;50.774;12.918;2023-08-12T04:43:42;1.92;;;1.83;;
7013;SDS011;3547;50.774;12.918;2023-08-12T04:49:36;2.58;;;2.20;;
7013;SDS011;3547;50.774;12.918;2023-08-12T04:52:02;2.20;;;2.00;;
7013;SDS011;3547;50.774;12.918;2023-08-12T04:54:28;2.63;;;2.30;;
7013;SDS011;3547;50.774;12.918;2023-08-12T04:56:55;2.40;;;2.03;;
7013;SDS011;3547;50.774;12.918;2023-08-12T04:59:24;4.30;;;2.05;;
7013;SDS011;3547;50.774;12.918;2023-08-12T05:12:35;2.05;;;1.95;;
7013;SDS011;3547;50.774;12.918;2023-08-12T05:15:03;2.30;;;1.98;;
7013;SDS011;3547;50.774;12.918;2023-08-12T05:17:36;2.30;;;1.92;;
7013;SDS011;3547;50.774;12.918;2023-08-12T05:20:03;2.00;;;1.70;;
7013;SDS011;3547;50.774;12.918;2023-08-12T05:22:30;2.00;;;1.90;;
7013;SDS011;3547;50.774;12.918;2023-08-12T05:24:56;1.95;;;1.80;;
7013;SDS011;3547;50.774;12.918;2023-08-12T05:27:22;2.88;;;2.20;;
7013;SDS011;3547;50.774;12.918;2023-08-12T05:29:48;3.15;;;2.13;;
7013;SDS011;3547;50.774;12.918;2023-08-12T05:32:15;4.30;;;2.25;;
7013;SDS011;3547;50.774;12.918;2023-08-12T05:34:41;2.28;;;2.08;;
7013;SDS011;3547;50.774;12.918;2023-08-12T05:37:07;3.45;;;1.90;;
7013;SDS011;3547;50.774;12.918;2023-08-12T05:39:34;2.75;;;2.28;;
7013;SDS011;3547;50.774;12.918;2023-08-12T05:42:02;2.13;;;1.95;;
7013;SDS011;3547;50.774;12.918;2023-08-12T05:44:28;2.22;;;1.98;;
7013;SDS011;3547;50.774;12.918;2023-08-12T05:46:54;2.85;;;2.00;;
7013;SDS011;3547;50.774;12.918;2023-08-12T05:49:21;2.17;;;2.00;;
7013;SDS011;3547;50.774;12.918;2023-08-12T05:51:47;2.08;;;1.88;;
7013;SDS011;3547;50.774;12.918;2023-08-12T05:54:14;2.55;;;2.05;;
7013;SDS011;3547;50.774;12.918;2023-08-12T06:00:02;2.72;;;1.77;;
7013;SDS011;3547;50.774;12.918;2023-08-12T06:02:29;2.28;;;2.08;;
7013;SDS011;3547;50.774;12.918;2023-08-12T06:04:55;1.73;;;1.63;;
7013;SDS011;3547;50.774;12.918;2023-08-12T06:07:21;2.05;;;1.85;;
7013;SDS011;3547;50.774;12.918;2023-08-12T06:09:49;2.15;;;1.95;;
7013;SDS011;3547;50.774;12.918;2023-08-12T06:12:16;2.05;;;1.85;;
7013;SDS011;3547;50.774;12.918;2023-08-12T06:14:42;1.90;;;1.70;;
7013;SDS011;3547;50.774;12.918;2023-08-12T06:17:09;2.10;;;1.90;;
7013;SDS011;3547;50.774;12.918;2023-08-12T06:19:35;2.92;;;2.20;;
7013;SDS011;3547;50.774;12.918;2023-08-12T06:22:02;1.98;;;1.88;;
7013;SDS011;3547;50.774;12.918;2023-08-12T06:24:28;3.95;;;1.83;;
7013;SDS011;3547;50.774;12.918;2023-08-12T06:26:55;2.03;;;1.85;;
7013;SDS011;3547;50.774;12.918;2023-08-12T06:29:21;2.10;;;1.90;;
7013;SDS011;3547;50.774;12.918;2023-08-12T06:31:47;1.95;;;1.85;;
7013;SDS011;3547;50.774;12.918;2023-08-12T06:34:13;1.60;;;1.50;;
7013;SDS011;3547;50.774;12.918;2023-08-12T06:36:39;3.22;;;1.80;;
7013;SDS011;3547;50.774;12.918;2023-08-12T06:39:06;2.63;;;2.05;;
7013;SDS011;3547;50.774;12.918;2023-08-12T06:41:34;2.00;;;1.80;;
7013;SDS011;3547;50.774;12.918;2023-08-12T06:44:01;2.17;;;1.90;;
7013;SDS011;3547;50.774;12.918;2023-08-12T06:46:29;6.25;;;2.10;;
7013;SDS011;3547;50.774;12.918;2023-08-12T06:48:57;1.88;;;1.73;;
7013;SDS011;3547;50.774;12.918;2023-08-12T06:51:24;2.15;;;1.95;;
7013;SDS011;3547;50.774;12.918;2023-08-12T06:53:50;1.88;;;1.75;;
7013;SDS011;3547;50.774;12.918;2023-08-12T06:56:16;2.35;;;1.77;;
7013;SDS011;3547;50.774;12.918;2023-08-12T06:58:45;2.00;;;1.80;;
7013;SDS011;3547;50.774;12.918;2023-08-12T07:01:14;2.00;;;1.80;;
7013;SDS011;3547;50.774;12.918;2023-08-12T07:03:41;4.35;;;1.95;;
7013;SDS011;3547;50.774;12.918;2023-08-12T07:06:07;1.90;;;1.80;;
7013;SDS011;3547;50.774;12.918;2023-08-12T07:08:33;6.72;;;1.75;;
7013;SDS011;3547;50.774;12.918;2023-08-12T07:11:00;1.40;;;1.30;;
7013;SDS011;3547;50.774;12.918;2023-08-12T07:13:26;2.53;;;2.03;;
7013;SDS011;3547;50.774;12.918;2023-08-12T07:15:52;2.03;;;1.83;;
7013;SDS011;3547;50.774;12.918;2023-08-12T07:18:19;2.20;;;1.90;;
7013;SDS011;3547;50.774;12.918;2023-08-12T07:20:45;2.90;;;2.38;;
7013;SDS011;3547;50.774;12.918;2023-08-12T07:23:11;1.95;;;1.80;;
7013;SDS011;3547;50.774;12.918;2023-08-12T07:25:37;2.13;;;1.92;;
7013;SDS011;3547;50.774;12.918;2023-08-12T07:28:04;2.10;;;1.85;;
7013;SDS011;3547;50.774;12.918;2023-08-12T07:30:30;1.70;;;1.60;;
7013;SDS011;3547;50.774;12.918;2023-08-12T07:32:56;2.08;;;1.88;;
7013;SDS011;3547;50.774;12.918;2023-08-12T07:35:22;4.63;;;2.00;;
7013;SDS011;3547;50.774;12.918;2023-08-12T07:37:48;1.95;;;1.80;;
7013;SDS011;3547;50.774;12.918;2023-08-12T07:40:15;1.60;;;1.50;;
7013;SDS011;3547;50.774;12.918;2023-08-12T07:42:41;1.60;;;1.50;;
7013;SDS011;3547;50.774;12.918;2023-08-12T07:45:08;3.97;;;1.92;;
7013;SDS011;3547;50.774;12.918;2023-08-12T07:47:34;6.00;;;2.33;;
7013;SDS011;3547;50.774;12.918;2023-08-12T07:50:01;3.03;;;2.08;;
7013;SDS011;3547;50.774;12.918;2023-08-12T07:52:27;1.90;;;1.70;;
7013;SDS011;3547;50.774;12.918;2023-08-12T07:54:53;1.98;;;1.88;;
7013;SDS011;3547;50.774;12.918;2023-08-12T07:57:19;2.10;;;1.80;;
7013;SDS011;3547;50.774;12.918;2023-08-12T07:59:50;1.73;;;1.63;;
7013;SDS011;3547;50.774;12.918;2023-08-12T08:02:16;1.90;;;1.80;;
7013;SDS011;3547;50.774;12.918;2023-08-12T08:04:43;1.85;;;1.60;;
7013;SDS011;3547;50.774;12.918;2023-08-12T08:07:10;1.77;;;1.63;;
7013;SDS011;3547;50.774;12.918;2023-08-12T08:09:37;1.45;;;1.35;;
7013;SDS011;3547;50.774;12.918;2023-08-12T08:12:03;1.70;;;1.60;;
7013;SDS011;3547;50.774;12.918;2023-08-12T08:14:29;1.90;;;1.70;;
7013;SDS011;3547;50.774;12.918;2023-08-12T08:16:55;1.45;;;1.35;;
7013;SDS011;3547;50.774;12.918;2023-08-12T08:19:22;2.25;;;1.88;;
7013;SDS011;3547;50.774;12.918;2023-08-12T08:21:48;4.50;;;1.48;;
7013;SDS011;3547;50.774;12.918;2023-08-12T08:24:14;1.88;;;1.70;;
7013;SDS011;3547;50.774;12.918;2023-08-12T08:26:41;2.00;;;1.73;;
7013;SDS011;3547;50.774;12.918;2023-08-12T08:29:07;1.90;;;1.80;;
7013;SDS011;3547;50.774;12.918;2023-08-12T08:31:33;1.65;;;1.50;;
7013;SDS011;3547;50.774;12.918;2023-08-12T08:33:59;2.03;;;1.67;;
7013;SDS011;3547;50.774;12.918;2023-08-12T08:36:25;1.55;;;1.45;;
7013;SDS011;3547;50.774;12.918;2023-08-12T08:38:51;1.63;;;1.33;;
7013;SDS011;3547;50.774;12.918;2023-08-12T08:41:18;1.20;;;1.10;;
7013;SDS011;3547;50.774;12.918;2023-08-12T08:43:45;1.35;;;1.25;;
7013;SDS011;3547;50.774;12.918;2023-08-12T08:46:16;1.30;;;1.20;;
7013;SDS011;3547;50.774;12.918;2023-08-12T08:48:43;1.40;;;1.30;;
7013;SDS011;3547;50.774;12.918;2023-08-12T08:51:10;1.40;;;1.30;;
7013;SDS011;3547;50.774;12.918;2023-08-12T08:53:38;1.48;;;1.35;;
7013;SDS011;3547;50.774;12.918;2023-08-12T08:56:05;1.85;;;1.52;;
7013;SDS011;3547;50.774;12.918;2023-08-12T08:58:33;2.13;;;1.42;;
7013;SDS011;3547;50.774;12.918;2023-08-12T09:00:59;1.30;;;1.20;;
7013;SDS011;3547;50.774;12.918;2023-08-12T09:03:27;1.40;;;1.30;;
7013;SDS011;3547;50.774;12.918;2023-08-12T09:05:55;1.83;;;1.45;;
7013;SDS011;3547;50.774;12.918;2023-08-12T09:08:23;1.52;;;1.42;;
7013;SDS011;3547;50.774;12.918;2023-08-12T09:10:51;1.30;;;1.20;;
7013;SDS011;3547;50.774;12.918;2023-08-12T09:13:18;1.30;;;1.20;;
7013;SDS011;3547;50.774;12.918;2023-08-12T09:15:44;2.30;;;1.20;;
7013;SDS011;3547;50.774;12.918;2023-08-12T09:18:10;1.02;;;0.93;;
7013;SDS011;3547;50.774;12.918;2023-08-12T09:20:37;1.40;;;1.30;;
7013;SDS011;3547;50.774;12.918;2023-08-12T09:23:03;1.50;;;1.40;;
7013;SDS011;3547;50.774;12.918;2023-08-12T09:25:29;2.35;;;1.17;;
7013;SDS011;3547;50.774;12.918;2023-08-12T09:27:58;3.83;;;1.15;;
7013;SDS011;3547;50.774;12.918;2023-08-12T09:30:27;1.55;;;1.45;;
7013;SDS011;3547;50.774;12.918;2023-08-12T09:33:01;1.15;;;1.05;;
7013;SDS011;3547;50.774;12.918;2023-08-12T09:35:33;1.40;;;1.23;;
7013;SDS011;3547;50.774;12.918;2023-08-12T09:38:01;1.13;;;1.02;;
7013;SDS011;3547;50.774;12.918;2023-08-12T09:40:32;1.00;;;1.00;;
7013;SDS011;3547;50.774;12.918;2023-08-12T09:43:00;1.40;;;1.30;;
7013;SDS011;3547;50.774;12.918;2023-08-12T09:45:26;1.30;;;1.20;;
7013;SDS011;3547;50.774;12.918;2023-08-12T09:47:54;1.38;;;1.20;;
7013;SDS011;3547;50.774;12.918;2023-08-12T09:50:21;1.30;;;1.20;;
7013;SDS011;3547;50.774;12.918;2023-08-12T09:52:48;2.03;;;1.17;;
7013;SDS011;3547;50.774;12.918;2023-08-12T09:55:16;1.58;;;1.10;;
7013;SDS011;3547;50.774;12.918;2023-08-12T09:57:43;0.93;;;0.90;;
7013;SDS011;3547;50.774;12.918;2023-08-12T10:00:12;1.20;;;1.10;;
7013;SDS011;3547;50.774;12.918;2023-08-12T10:02:46;1.45;;;1.35;;
7013;SDS011;3547;50.774;12.918;2023-08-12T10:05:32;1.30;;;1.20;;
7013;SDS011;3547;50.774;12.918;2023-08-12T10:07:59;1.33;;;1.23;;
7013;SDS011;3547;50.774;12.918;2023-08-12T10:10:28;1.20;;;1.10;;
7013;SDS011;3547;50.774;12.918;2023-08-12T10:12:57;1.23;;;1.20;;
7013;SDS011;3547;50.774;12.918;2023-08-12T10:15:24;1.55;;;1.33;;
7013;SDS011;3547;50.774;12.918;2023-08-12T10:17:51;1.13;;;1.02;;
7013;SDS011;3547;50.774;12.918;2023-08-12T10:20:22;1.00;;;1.00;;
7013;SDS011;3547;50.774;12.918;2023-08-12T10:22:50;1.52;;;1.20;;
7013;SDS011;3547;50.774;12.918;2023-08-12T10:25:20;1.20;;;1.10;;
7013;SDS011;3547;50.774;12.918;2023-08-12T10:27:49;1.25;;;1.15;;
7013;SDS011;3547;50.774;12.918;2023-08-12T10:30:16;1.20;;;1.10;;
7013;SDS011;3547;50.774;12.918;2023-08-12T10:32:42;1.13;;;1.00;;
7013;SDS011;3547;50.774;12.918;2023-08-12T10:35:09;1.27;;;1.17;;
7013;SDS011;3547;50.774;12.918;2023-08-12T10:37:35;1.13;;;1.08;;
7013;SDS011;3547;50.774;12.918;2023-08-12T10:40:02;1.02;;;1.02;;
7013;SDS011;3547;50.774;12.918;2023-08-12T10:42:39;1.33;;;1.23;;
7013;SDS011;3547;50.774;12.918;2023-08-12T10:45:06;1.02;;;0.98;;
7013;SDS011;3547;50.774;12.918;2023-08-12T10:47:33;1.40;;;1.23;;
7013;SDS011;3547;50.774;12.918;2023-08-12T10:50:16;1.38;;;1.27;;
7013;SDS011;3547;50.774;12.918;2023-08-12T10:52:46;1.20;;;1.10;;
7013;SDS011;3547;50.774;12.918;2023-08-12T10:57:43;0.98;;;0.95;;
7013;SDS011;3547;50.774;12.918;2023-08-12T11:00:10;1.23;;;1.13;;
7013;SDS011;3547;50.774;12.918;2023-08-12T11:02:44;1.15;;;1.10;;
7013;SDS011;3547;50.774;12.918;2023-08-12T11:05:11;1.20;;;1.10;;
7013;SDS011;3547;50.774;12.918;2023-08-12T11:07:48;1.17;;;1.02;;
7013;SDS011;3547;50.774;12.918;2023-08-12T11:10:27;1.20;;;1.10;;
7013;SDS011;3547;50.774;12.918;2023-08-12T11:12:56;1.20;;;1.10;;
7013;SDS011;3547;50.774;12.918;2023-08-12T11:18:08;1.25;;;1.08;;
7013;SDS011;3547;50.774;12.918;2023-08-12T11:20:39;0.98;;;0.98;;
7013;SDS011;3547;50.774;12.918;2023-08-12T11:23:06;1.10;;;1.02;;
7013;SDS011;3547;50.774;12.918;2023-08-12T11:25:34;1.38;;;1.27;;
7013;SDS011;3547;50.774;12.918;2023-08-12T11:28:01;1.27;;;1.17;;
7013;SDS011;3547;50.774;12.918;2023-08-12T11:30:29;1.00;;;1.00;;
7013;SDS011;3547;50.774;12.918;2023-08-12T11:32:55;1.48;;;1.20;;
7013;SDS011;3547;50.774;12.918;2023-08-12T11:35:23;1.00;;;1.00;;
7013;SDS011;3547;50.774;12.918;2023-08-12T11:37:53;1.23;;;1.13;;
7013;SDS011;3547;50.774;12.918;2023-08-12T11:40:21;3.28;;;1.05;;
7013;SDS011;3547;50.774;12.918;2023-08-12T11:42:49;2.03;;;1.42;;
7013;SDS011;3547;50.774;12.918;2023-08-12T11:45:18;1.33;;;1.10;;
7013;SDS011;3547;50.774;12.918;2023-08-12T11:47:46;1.33;;;1.00;;
7013;SDS011;3547;50.774;12.918;2023-08-12T11:50:18;1.20;;;1.10;;
7013;SDS011;3547;50.774;12.918;2023-08-12T11:52:55;1.20;;;1.10;;
7013;SDS011;3547;50.774;12.918;2023-08-12T11:55:22;1.48;;;1.38;;
7013;SDS011;3547;50.774;12.918;2023-08-12T11:57:49;1.35;;;1.25;;
7013;SDS011;3547;50.774;12.918;2023-08-12T12:00:16;1.63;;;1.13;;
7013;SDS011;3547;50.774;12.918;2023-08-12T12:02:53;1.20;;;1.10;;
7013;SDS011;3547;50.774;12.918;2023-08-12T12:05:21;1.45;;;1.35;;
7013;SDS011;3547;50.774;12.918;2023-08-12T12:07:49;0.95;;;0.95;;
7013;SDS011;3547;50.774;12.918;2023-08-12T12:10:38;1.30;;;1.13;;
7013;SDS011;3547;50.774;12.918;2023-08-12T12:13:09;1.25;;;1.13;;
7013;SDS011;3547;50.774;12.918;2023-08-12T12:15:43;2.17;;;1.38;;
7013;SDS011;3547;50.774;12.918;2023-08-12T12:18:11;1.38;;;1.27;;
7013;SDS011;3547;50.774;12.918;2023-08-12T12:20:59;1.40;;;1.30;;
7013;SDS011;3547;50.774;12.918;2023-08-12T12:23:28;1.80;;;1.70;;
7013;SDS011;3547;50.774;12.918;2023-08-12T12:26:01;2.65;;;1.30;;
7013;SDS011;3547;50.774;12.918;2023-08-12T12:28:29;1.30;;;1.20;;
7013;SDS011;3547;50.774;12.918;2023-08-12T12:30:56;1.30;;;1.20;;
7013;SDS011;3547;50.774;12.918;2023-08-12T12:33:22;1.50;;;1.40;;
7013;SDS011;3547;50.774;12.918;2023-08-12T12:35:49;0.98;;;0.98;;
7013;SDS011;3547;50.774;12.918;2023-08-12T12:38:16;1.50;;;1.40;;
7013;SDS011;3547;50.774;12.918;2023-08-12T12:40:42;1.33;;;1.10;;
7013;SDS011;3547;50.774;12.918;2023-08-12T12:43:08;1.15;;;1.05;;
7013;SDS011;3547;50.774;12.918;2023-08-12T12:45:34;1.40;;;1.30;;
7013;SDS011;3547;50.774;12.918;2023-08-12T12:48:00;1.40;;;1.30;;
7013;SDS011;3547;50.774;12.918;2023-08-12T12:50:26;1.50;;;1.30;;
7013;SDS011;3547;50.774;12.918;2023-08-12T12:52:53;1.23;;;1.13;;
7013;SDS011;3547;50.774;12.918;2023-08-12T12:55:19;1.30;;;1.20;;
7013;SDS011;3547;50.774;12.918;2023-08-12T12:57:46;1.48;;;1.38;;
7013;SDS011;3547;50.774;12.918;2023-08-12T13:00:12;1.40;;;1.30;;
7013;SDS011;3547;50.774;12.918;2023-08-12T13:02:41;1.30;;;1.30;;
7013;SDS011;3547;50.774;12.918;2023-08-12T13:05:07;1.48;;;1.33;;
7013;SDS011;3547;50.774;12.918;2023-08-12T13:07:34;1.10;;;1.10;;
7013;SDS011;3547;50.774;12.918;2023-08-12T13:10:00;1.45;;;1.35;;
7013;SDS011;3547;50.774;12.918;2023-08-12T13:12:26;1.40;;;1.30;;
7013;SDS011;3547;50.774;12.918;2023-08-12T13:14:52;1.35;;;1.17;;
7013;SDS011;3547;50.774;12.918;2023-08-12T13:17:18;2.13;;;1.60;;
7013;SDS011;3547;50.774;12.918;2023-08-12T13:19:45;1.40;;;1.30;;
7013;SDS011;3547;50.774;12.918;2023-08-12T13:22:11;1.50;;;1.40;;
7013;SDS011;3547;50.774;12.918;2023-08-12T13:24:37;1.58;;;1.40;;
7013;SDS011;3547;50.774;12.918;2023-08-12T13:27:03;2.22;;;1.70;;
7013;SDS011;3547;50.774;12.918;2023-08-12T13:29:29;2.25;;;1.60;;
7013;SDS011;3547;50.774;12.918;2023-08-12T13:31:57;1.38;;;1.30;;
7013;SDS011;3547;50.774;12.918;2023-08-12T13:34:24;1.92;;;1.50;;
7013;SDS011;3547;50.774;12.918;2023-08-12T13:36:51;1.42;;;1.33;;
7013;SDS011;3547;50.774;12.918;2023-08-12T13:39:17;1.77;;;1.60;;
7013;SDS011;3547;50.774;12.918;2023-08-12T13:41:43;1.15;;;1.15;;
7013;SDS011;3547;50.774;12.918;2023-08-12T13:44:09;1.60;;;1.50;;
7013;SDS011;3547;50.774;12.918;2023-08-12T13:46:35;2.45;;;1.30;;
7013;SDS011;3547;50.774;12.918;2023-08-12T13:49:02;2.53;;;1.50;;
7013;SDS011;3547;50.774;12.918;2023-08-12T13:51:28;1.70;;;1.60;;
7013;SDS011;3547;50.774;12.918;2023-08-12T13:53:56;1.60;;;1.27;;
7013;SDS011;3547;50.774;12.918;2023-08-12T13:56:22;1.85;;;1.30;;
7013;SDS011;3547;50.774;12.918;2023-08-12T13:58:48;1.25;;;1.25;;
7013;SDS011;3547;50.774;12.918;2023-08-12T14:01:14;2.35;;;1.40;;
7013;SDS011;3547;50.774;12.918;2023-08-12T14:03:41;1.50;;;1.40;;
7013;SDS011;3547;50.774;12.918;2023-08-12T14:06:07;1.65;;;1.55;;
7013;SDS011;3547;50.774;12.918;2023-08-12T14:08:36;3.03;;;1.42;;
7013;SDS011;3547;50.774;12.918;2023-08-12T14:11:02;1.60;;;1.50;;
7013;SDS011;3547;50.774;12.918;2023-08-12T14:13:29;1.58;;;1.48;;
7013;SDS011;3547;50.774;12.918;2023-08-12T14:15:55;1.65;;;1.55;;
7013;SDS011;3547;50.774;12.918;2023-08-12T14:18:21;1.77;;;1.50;;
7013;SDS011;3547;50.774;12.918;2023-08-12T14:20:48;1.92;;;1.70;;
7013;SDS011;3547;50.774;12.918;2023-08-12T14:23:14;1.58;;;1.48;;
7013;SDS011;3547;50.774;12.918;2023-08-12T14:25:40;1.40;;;1.30;;
7013;SDS011;3547;50.774;12.918;2023-08-12T14:28:06;1.38;;;1.30;;
7013;SDS011;3547;50.774;12.918;2023-08-12T14:30:33;1.60;;;1.50;;
7013;SDS011;3547;50.774;12.918;2023-08-12T14:32:59;1.52;;;1.42;;
7013;SDS011;3547;50.774;12.918;2023-08-12T14:35:25;1.60;;;1.50;;
7013;SDS011;3547;50.774;12.918;2023-08-12T14:37:51;1.90;;;1.80;;
7013;SDS011;3547;50.774;12.918;2023-08-12T14:40:18;1.60;;;1.50;;
7013;SDS011;3547;50.774;12.918;2023-08-12T14:42:44;1.70;;;1.60;;
7013;SDS011;3547;50.774;12.918;2023-08-12T14:45:11;1.63;;;1.52;;
7013;SDS011;3547;50.774;12.918;2023-08-12T14:47:37;1.83;;;1.73;;
7013;SDS011;3547;50.774;12.918;2023-08-12T14:50:03;1.77;;;1.67;;
7013;SDS011;3547;50.774;12.918;2023-08-12T14:52:30;2.00;;;1.88;;
7013;SDS011;3547;50.774;12.918;2023-08-12T14:54:56;2.20;;;2.00;;
7013;SDS011;3547;50.774;12.918;2023-08-12T14:57:22;2.00;;;1.90;;
7013;SDS011;3547;50.774;12.918;2023-08-12T14:59:48;1.67;;;1.58;;
7013;SDS011;3547;50.774;12.918;2023-08-12T15:02:16;1.70;;;1.60;;
7013;SDS011;3547;50.774;12.918;2023-08-12T15:04:43;1.70;;;1.60;;
7013;SDS011;3547;50.774;12.918;2023-08-12T15:07:09;1.98;;;1.88;;
7013;SDS011;3547;50.774;12.918;2023-08-12T15:09:38;1.80;;;1.70;;
7013;SDS011;3547;50.774;12.918;2023-08-12T15:12:04;3.05;;;1.70;;
7013;SDS011;3547;50.774;12.918;2023-08-12T15:14:31;2.10;;;2.00;;
7013;SDS011;3547;50.774;12.918;2023-08-12T15:16:57;6.13;;;2.58;;
7013;SDS011;3547;50.774;12.918;2023-08-12T15:19:23;1.95;;;1.85;;
7013;SDS011;3547;50.774;12.918;2023-08-12T15:21:50;2.67;;;1.95;;
7013;SDS011;3547;50.774;12.918;2023-08-12T15:24:16;1.90;;;1.80;;
7013;SDS011;3547;50.774;12.918;2023-08-12T15:26:42;2.25;;;2.05;;
7013;SDS011;3547;50.774;12.918;2023-08-12T15:29:10;2.00;;;1.77;;
7013;SDS011;3547;50.774;12.918;2023-08-12T15:31:37;1.90;;;1.75;;
7013;SDS011;3547;50.774;12.918;2023-08-12T15:34:04;1.83;;;1.73;;
7013;SDS011;3547;50.774;12.918;2023-08-12T15:36:30;3.75;;;2.35;;
7013;SDS011;3547;50.774;12.918;2023-08-12T15:38:57;3.22;;;2.25;;
7013;SDS011;3547;50.774;12.918;2023-08-12T15:41:23;2.90;;;2.40;;
7013;SDS011;3547;50.774;12.918;2023-08-12T15:43:49;2.28;;;2.05;;
7013;SDS011;3547;50.774;12.918;2023-08-12T15:46:15;1.65;;;1.55;;
7013;SDS011;3547;50.774;12.918;2023-08-12T15:48:42;3.17;;;1.60;;